METAR AND TAF INFORMATION
METAR FOR UHSS
ADDS - METARS form results

(2257 UTC 08 August 2020)
Data provider http://aviationweather.gov/metar/data/
 
METAR text: UHSS 082230Z 00000MPS 9999 FEW033 15/12 Q1010 R01/70D NOSIG RMK MT OBSC QFE757/1009
Conditions at: UHSS (JUZNO-SAHALINSK , RU) observed 2230 UTC 08 August 2020
Temperature: 15.0°C (59°F)
Dewpoint: 12.0°C (54°F) [RH = 82%]
Pressure (altimeter): 29.82 inches Hg (1010.0 mb)
Winds: calm
Visibility: 6 or more miles (10+ km)
Ceiling: at least 12,000 feet AGL
Clouds: few clouds at 3300 feet AGL
Weather: no significant weather observed at this time

METAR text: UHSS 082200Z 01001MPS 9999 FEW033 12/10 Q1010 R01/70D NOSIG RMK MT OBSC QFE756/1009
Conditions at: UHSS (JUZNO-SAHALINSK , RU) observed 2200 UTC 08 August 2020
Temperature: 12.0°C (54°F)
Dewpoint: 10.0°C (50°F) [RH = 88%]
Pressure (altimeter): 29.82 inches Hg (1010.0 mb)
Winds: from the N (10 degrees) at 2 MPH (2 knots; 1.0 m/s)
Visibility: 6 or more miles (10+ km)
Ceiling: at least 12,000 feet AGL
Clouds: few clouds at 3300 feet AGL
Weather: no significant weather observed at this time

Forecast for: UHSS (JUZNO-SAHALINSK , RU)
Text: TAF UHSS 081950Z 0821/1003 18003MPS 9999 BKN030CB
Forecast period: 2100 UTC 08 August 2020 to 0300 UTC 10 August 2020
Forecast type: FROM: standard forecast or significant change
Winds: from the S (180 degrees) at 7 MPH (6 knots; 3.1 m/s)
Visibility: 6 or more miles (10+ km)
Ceiling: 3000 feet AGL
Clouds: broken clouds at 3000 feet AGL
Weather: no significant weather forecast for this period

 AIRPORT MAP

 RUNWAY INFORMATION

 AIRPORT FREQUENCIES
Type GCA Name RDR Frequency 120.6 MHZ
Type TWR Name TWR Frequency 120.6 MHZ

 AIRPORT NEAR NAVIGATION AIDS
Type NDB Name Khomutovo Frequency 505 KHZ
Type NDB Name Khomutovo Frequency 505 KHZ



2018 Air Astana Virtual Airline